Time;durP1;ratioP1;P1;durP2;ratioP2;P2;SDS_P1;SDS_P2;PMS_P1;PMS_P2;Temp;Humidity;BMP_temperature;BMP_pressure;BME280_temperature;BME280_humidity;BME280_pressure;Samples;Min_cycle;Max_cycle;Signal;HPM_P1;HPM_P2
2023/12/30 00:01:56;;;;;;;2.08;1.20;;;10.10;83.20;;;;;;4990037;28;20100;-62
2023/12/30 00:04:22;;;;;;;1.23;1.13;;;10.10;83.30;;;;;;4989352;28;20521;-61
2023/12/30 00:06:48;;;;;;;1.67;1.25;;;10.00;83.30;;;;;;4987866;28;20153;-61
2023/12/30 00:09:13;;;;;;;1.90;1.20;;;10.00;83.30;;;;;;4986972;28;20046;-60
2023/12/30 00:11:39;;;;;;;1.20;1.10;;;10.00;83.30;;;;;;4988470;28;20125;-62
2023/12/30 00:14:05;;;;;;;1.20;1.05;;;10.00;83.40;;;;;;4984355;28;20031;-60
2023/12/30 00:16:30;;;;;;;1.20;1.02;;;10.00;83.30;;;;;;4992140;28;20031;-60
2023/12/30 00:18:56;;;;;;;1.25;1.10;;;10.00;83.40;;;;;;4991130;28;20143;-60
2023/12/30 00:21:22;;;;;;;1.40;1.15;;;10.00;83.40;;;;;;4991676;28;20027;-60
2023/12/30 00:23:48;;;;;;;1.42;1.00;;;10.00;83.30;;;;;;4991506;28;20405;-60
2023/12/30 00:26:24;;;;;;;1.20;1.00;;;10.00;83.30;;;;;;4991758;28;20023;-61
2023/12/30 00:28:50;;;;;;;0.90;0.90;;;10.00;83.40;;;;;;4989568;28;20133;-61
2023/12/30 00:31:24;;;;;;;0.98;0.93;;;10.00;83.10;;;;;;4991678;28;20374;-60
2023/12/30 00:33:52;;;;;;;1.35;1.05;;;10.00;83.10;;;;;;4990758;28;20042;-59
2023/12/30 00:36:17;;;;;;;1.85;0.90;;;10.00;83.00;;;;;;4995790;28;20040;-61
2023/12/30 00:38:43;;;;;;;1.80;1.10;;;10.00;82.90;;;;;;4992099;28;20042;-61
2023/12/30 00:41:08;;;;;;;1.42;1.00;;;10.00;82.90;;;;;;4990171;28;20048;-59
2023/12/30 00:43:37;;;;;;;2.03;1.00;;;10.00;82.80;;;;;;4991564;28;20387;-60
2023/12/30 00:46:02;;;;;;;1.73;1.00;;;10.00;82.70;;;;;;4988168;28;20039;-61
2023/12/30 00:48:28;;;;;;;1.13;1.00;;;10.00;82.60;;;;;;4991454;28;20429;-60
2023/12/30 00:50:53;;;;;;;1.83;0.90;;;10.00;82.60;;;;;;4990108;28;20521;-61
2023/12/30 00:53:20;;;;;;;2.97;0.80;;;10.00;82.60;;;;;;4990787;28;20040;-60
2023/12/30 00:55:46;;;;;;;1.02;0.93;;;10.00;82.50;;;;;;4988315;28;20076;-60
2023/12/30 00:58:11;;;;;;;1.83;1.00;;;10.00;82.40;;;;;;4990469;28;20062;-60
2023/12/30 01:00:37;;;;;;;1.30;1.20;;;10.00;82.40;;;;;;4990719;28;20054;-62
2023/12/30 01:03:03;;;;;;;1.13;0.90;;;10.00;82.40;;;;;;4989491;28;20042;-61
2023/12/30 01:05:28;;;;;;;1.20;0.90;;;10.00;82.30;;;;;;4991305;28;20053;-60
2023/12/30 01:07:54;;;;;;;1.30;1.20;;;10.00;82.20;;;;;;4987577;28;20030;-59
2023/12/30 01:10:19;;;;;;;1.33;0.90;;;9.90;82.10;;;;;;4984710;28;20049;-61
2023/12/30 01:12:45;;;;;;;3.50;1.13;;;9.90;82.10;;;;;;4985860;28;20085;-61
2023/12/30 01:15:10;;;;;;;1.33;1.10;;;9.90;82.10;;;;;;4975734;28;20042;-61
2023/12/30 01:17:36;;;;;;;2.20;1.08;;;9.90;82.10;;;;;;4986177;28;20042;-62
2023/12/30 01:20:03;;;;;;;2.63;1.20;;;9.90;82.00;;;;;;4975815;28;20118;-61
2023/12/30 01:22:28;;;;;;;1.02;1.02;;;9.80;82.00;;;;;;4986184;28;20629;-61
2023/12/30 01:24:54;;;;;;;1.77;0.98;;;9.80;82.00;;;;;;4973497;28;20113;-61
2023/12/30 01:27:19;;;;;;;1.17;0.90;;;9.80;82.10;;;;;;4980651;28;20397;-59
2023/12/30 01:29:45;;;;;;;1.52;0.90;;;9.80;82.00;;;;;;4997897;28;20034;-61
2023/12/30 01:32:10;;;;;;;1.58;1.10;;;9.80;82.00;;;;;;4986555;28;20114;-61
2023/12/30 01:34:36;;;;;;;1.75;1.10;;;9.80;82.00;;;;;;4988022;28;20064;-62
2023/12/30 01:37:01;;;;;;;1.38;1.00;;;9.80;82.00;;;;;;4983815;28;20027;-61
2023/12/30 01:39:27;;;;;;;1.05;0.90;;;9.80;81.90;;;;;;4988253;28;20038;-62
2023/12/30 01:41:53;;;;;;;1.35;1.00;;;9.80;82.60;;;;;;4980781;28;20112;-61
2023/12/30 01:44:18;;;;;;;1.48;0.90;;;9.80;81.70;;;;;;4985226;28;20191;-61
2023/12/30 01:46:44;;;;;;;1.65;1.10;;;9.80;81.50;;;;;;4987352;28;20039;-60
2023/12/30 01:49:11;;;;;;;2.72;1.00;;;9.70;81.30;;;;;;4987569;28;20038;-61
2023/12/30 01:51:36;;;;;;;0.88;0.80;;;9.70;81.30;;;;;;4989536;28;20066;-62
2023/12/30 01:54:04;;;;;;;1.73;1.30;;;9.70;81.20;;;;;;4990312;28;20463;-61
2023/12/30 01:56:31;;;;;;;1.15;0.90;;;9.70;81.00;;;;;;4976792;28;20516;-59
2023/12/30 01:58:59;;;;;;;2.45;0.88;;;9.70;80.80;;;;;;4985363;28;20502;-61
2023/12/30 02:01:27;;;;;;;0.90;0.70;;;9.70;81.60;;;;;;4983078;28;20038;-60
2023/12/30 02:03:52;;;;;;;0.90;0.70;;;9.70;80.50;;;;;;4982700;28;20413;-62
2023/12/30 02:06:18;;;;;;;0.63;0.60;;;9.60;80.40;;;;;;4983911;28;20519;-60
2023/12/30 02:08:44;;;;;;;3.17;0.70;;;9.60;80.40;;;;;;4981291;28;20137;-61
2023/12/30 02:11:11;;;;;;;1.73;0.70;;;9.60;80.10;;;;;;4986290;28;20057;-61
2023/12/30 02:13:40;;;;;;;0.75;0.70;;;9.60;79.90;;;;;;4982106;28;20034;-62
2023/12/30 02:16:07;;;;;;;0.82;0.77;;;9.60;79.80;;;;;;4981846;28;20117;-61
2023/12/30 02:18:32;;;;;;;1.25;0.70;;;9.60;79.40;;;;;;4984589;28;20399;-62
2023/12/30 02:20:58;;;;;;;0.80;0.73;;;9.60;79.30;;;;;;4980158;28;20045;-61
2023/12/30 02:23:23;;;;;;;3.03;0.80;;;9.60;79.20;;;;;;4994116;28;20041;-60
2023/12/30 02:25:50;;;;;;;0.90;0.68;;;9.60;78.90;;;;;;4995502;28;20117;-62
2023/12/30 02:28:16;;;;;;;1.88;0.80;;;9.60;78.90;;;;;;4987818;28;20494;-60
2023/12/30 02:30:42;;;;;;;1.95;0.50;;;9.50;78.60;;;;;;4985060;28;20050;-61
2023/12/30 02:33:07;;;;;;;0.77;0.57;;;9.50;78.60;;;;;;4985385;28;20113;-60
2023/12/30 02:35:33;;;;;;;1.20;0.50;;;9.50;78.50;;;;;;4978415;28;20130;-60
2023/12/30 02:37:59;;;;;;;0.90;0.50;;;9.50;78.30;;;;;;4988707;28;20078;-61
2023/12/30 02:40:24;;;;;;;1.15;0.70;;;9.50;78.20;;;;;;4977924;28;20062;-61
2023/12/30 02:42:50;;;;;;;2.38;0.75;;;9.50;78.10;;;;;;4983109;28;20486;-61
2023/12/30 02:45:15;;;;;;;1.73;0.70;;;9.50;78.20;;;;;;4986846;28;20405;-59
2023/12/30 02:47:41;;;;;;;1.38;0.70;;;9.50;78.00;;;;;;4982360;28;20033;-61
2023/12/30 02:50:07;;;;;;;1.33;0.70;;;9.40;78.10;;;;;;4986478;28;20051;-59
2023/12/30 02:52:33;;;;;;;2.15;0.88;;;9.40;78.10;;;;;;4977688;28;20034;-61
2023/12/30 02:55:00;;;;;;;1.65;0.80;;;9.40;78.10;;;;;;4991653;28;20045;-62
2023/12/30 02:57:26;;;;;;;0.98;0.75;;;9.40;78.00;;;;;;4993547;28;20039;-61
2023/12/30 02:59:52;;;;;;;3.05;0.88;;;9.40;78.00;;;;;;4990182;28;20050;-61
2023/12/30 03:02:17;;;;;;;3.95;0.80;;;9.40;78.10;;;;;;4985430;28;20514;-60
2023/12/30 03:04:43;;;;;;;1.35;0.60;;;9.40;78.20;;;;;;4984030;28;20122;-60
2023/12/30 03:07:09;;;;;;;2.33;0.70;;;9.40;78.10;;;;;;4997750;28;20123;-61
2023/12/30 03:09:34;;;;;;;0.85;0.52;;;9.40;78.10;;;;;;4984495;28;20140;-62
2023/12/30 03:12:02;;;;;;;2.35;0.70;;;9.40;78.00;;;;;;4990472;28;20113;-60
2023/12/30 03:14:27;;;;;;;1.73;0.63;;;9.40;77.90;;;;;;4991113;28;20173;-59
2023/12/30 03:16:53;;;;;;;1.48;0.63;;;9.40;78.00;;;;;;4986739;28;20520;-60
2023/12/30 03:19:19;;;;;;;0.80;0.47;;;9.40;78.00;;;;;;4986784;28;20042;-61
2023/12/30 03:21:45;;;;;;;1.60;0.70;;;9.40;78.00;;;;;;4997981;28;20055;-61
2023/12/30 03:24:11;;;;;;;1.55;0.52;;;9.40;77.90;;;;;;4990391;28;20120;-61
2023/12/30 03:26:37;;;;;;;1.27;0.60;;;9.40;77.90;;;;;;4995979;28;20038;-59
2023/12/30 03:29:03;;;;;;;0.70;0.55;;;9.40;77.80;;;;;;4984209;28;20038;-61
2023/12/30 03:31:28;;;;;;;1.20;0.70;;;9.30;77.80;;;;;;4985992;28;20053;-61
2023/12/30 03:33:55;;;;;;;1.23;0.60;;;9.30;77.80;;;;;;4985718;28;20181;-62
2023/12/30 03:36:21;;;;;;;2.05;0.60;;;9.30;77.80;;;;;;4990309;28;20031;-61
2023/12/30 03:38:50;;;;;;;0.88;0.60;;;9.30;77.90;;;;;;4998967;28;20100;-60
2023/12/30 03:41:16;;;;;;;1.00;0.50;;;9.30;77.90;;;;;;4996927;28;20034;-61
2023/12/30 03:43:42;;;;;;;1.38;0.60;;;9.30;77.90;;;;;;4986188;28;20054;-60
2023/12/30 03:46:08;;;;;;;1.17;0.70;;;9.30;78.00;;;;;;4990526;28;20452;-60
2023/12/30 03:48:33;;;;;;;1.45;0.50;;;9.30;78.00;;;;;;4985198;28;20039;-62
2023/12/30 03:50:59;;;;;;;1.80;0.80;;;9.30;78.10;;;;;;4990594;28;20072;-60
2023/12/30 03:53:25;;;;;;;0.85;0.63;;;9.30;78.10;;;;;;4989157;28;20034;-60
2023/12/30 03:55:50;;;;;;;0.73;0.60;;;9.30;78.20;;;;;;4987785;28;20034;-61
2023/12/30 03:58:16;;;;;;;1.38;0.63;;;9.30;78.20;;;;;;4987600;28;20045;-61
2023/12/30 04:00:42;;;;;;;1.90;0.52;;;9.30;78.20;;;;;;4987700;28;20117;-61
2023/12/30 04:03:07;;;;;;;1.55;0.75;;;9.30;78.30;;;;;;4984094;28;20562;-61
2023/12/30 04:05:33;;;;;;;2.05;0.68;;;9.20;78.20;;;;;;4987375;28;20046;-61
2023/12/30 04:07:59;;;;;;;0.85;0.50;;;9.30;78.30;;;;;;4991236;28;20111;-61
2023/12/30 04:10:25;;;;;;;1.20;0.68;;;9.30;78.30;;;;;;4989665;28;20477;-61
2023/12/30 04:12:50;;;;;;;0.98;0.60;;;9.30;78.20;;;;;;4989233;28;20034;-61
2023/12/30 04:15:16;;;;;;;2.50;0.60;;;9.20;78.30;;;;;;4983500;28;20039;-61
2023/12/30 04:17:41;;;;;;;1.15;0.50;;;9.20;78.30;;;;;;4984618;28;20520;-62
2023/12/30 04:20:07;;;;;;;1.23;0.50;;;9.20;78.40;;;;;;4974843;28;20041;-61
2023/12/30 04:22:33;;;;;;;0.70;0.50;;;9.20;78.30;;;;;;4989930;28;20061;-61
2023/12/30 04:24:59;;;;;;;3.05;0.70;;;9.30;78.40;;;;;;4988655;28;20053;-62
2023/12/30 04:27:25;;;;;;;1.13;0.35;;;9.30;78.40;;;;;;4986847;28;20086;-61
2023/12/30 04:29:51;;;;;;;1.10;0.60;;;9.30;78.50;;;;;;4984700;28;20022;-61
2023/12/30 04:32:16;;;;;;;1.92;0.43;;;9.30;78.50;;;;;;4992909;28;20030;-61
2023/12/30 04:34:42;;;;;;;1.77;0.47;;;9.30;78.50;;;;;;4987140;28;20030;-62
2023/12/30 04:37:08;;;;;;;0.68;0.30;;;9.30;78.50;;;;;;4990240;28;20042;-60
2023/12/30 04:39:33;;;;;;;11.80;0.70;;;9.30;78.50;;;;;;4990476;28;20154;-62
2023/12/30 04:41:59;;;;;;;1.73;0.68;;;9.30;78.60;;;;;;4985997;28;20031;-62
2023/12/30 04:44:25;;;;;;;1.95;0.52;;;9.40;78.60;;;;;;4983587;28;20532;-61
2023/12/30 04:46:50;;;;;;;0.63;0.47;;;9.40;78.60;;;;;;4989092;28;20130;-60
2023/12/30 04:49:16;;;;;;;1.00;0.50;;;9.40;78.50;;;;;;4988069;28;20073;-61
2023/12/30 04:51:42;;;;;;;3.08;0.50;;;9.40;78.60;;;;;;4989910;28;20042;-62
2023/12/30 04:54:07;;;;;;;0.82;0.60;;;9.40;78.60;;;;;;4988957;28;20456;-62
2023/12/30 04:56:33;;;;;;;1.50;0.60;;;9.40;78.50;;;;;;4988402;28;20041;-61
2023/12/30 04:59:00;;;;;;;1.17;0.60;;;9.40;78.60;;;;;;4983112;28;20053;-61
2023/12/30 05:01:25;;;;;;;2.78;0.75;;;9.50;78.60;;;;;;4986042;28;20030;-61
2023/12/30 05:03:51;;;;;;;1.20;0.55;;;9.50;78.60;;;;;;4980952;28;20035;-61
2023/12/30 05:06:23;;;;;;;1.65;0.57;;;9.50;78.60;;;;;;4986129;28;20046;-61
2023/12/30 05:08:50;;;;;;;1.35;0.68;;;9.50;78.60;;;;;;4980663;28;20039;-61
2023/12/30 05:11:16;;;;;;;1.42;0.60;;;9.50;78.70;;;;;;4986484;28;20137;-61
2023/12/30 05:13:45;;;;;;;5.68;0.73;;;9.50;78.70;;;;;;4986401;28;20614;-61
2023/12/30 05:16:11;;;;;;;1.20;0.60;;;9.50;78.70;;;;;;4988036;28;20454;-61
2023/12/30 05:18:37;;;;;;;2.60;0.80;;;9.60;78.90;;;;;;4989553;28;20137;-62
2023/12/30 05:21:03;;;;;;;1.20;0.70;;;9.60;79.10;;;;;;4981204;28;20415;-62
2023/12/30 05:23:29;;;;;;;1.02;0.77;;;9.60;79.20;;;;;;4985709;28;20410;-61
2023/12/30 05:25:55;;;;;;;1.30;0.80;;;9.60;80.10;;;;;;4982955;28;20085;-61
2023/12/30 05:28:20;;;;;;;2.30;0.80;;;9.60;79.40;;;;;;4981302;28;20566;-60
2023/12/30 05:30:46;;;;;;;2.40;0.90;;;9.60;79.40;;;;;;4982968;28;20434;-61
2023/12/30 05:33:11;;;;;;;1.55;0.88;;;9.60;79.60;;;;;;4989179;28;20038;-61
2023/12/30 05:35:39;;;;;;;1.55;1.27;;;9.60;80.50;;;;;;4983801;28;20030;-61
2023/12/30 05:38:05;;;;;;;3.05;1.25;;;9.60;79.70;;;;;;4982833;28;20030;-60
2023/12/30 05:40:31;;;;;;;1.20;1.00;;;9.60;80.70;;;;;;4986361;28;20406;-61
2023/12/30 05:42:56;;;;;;;1.55;1.02;;;9.60;79.90;;;;;;4985021;28;20054;-62
2023/12/30 05:45:22;;;;;;;1.25;1.02;;;9.60;80.00;;;;;;4982617;28;20041;-61
2023/12/30 05:47:47;;;;;;;3.15;1.10;;;9.60;80.10;;;;;;4985771;28;20517;-62
2023/12/30 05:50:13;;;;;;;1.77;1.23;;;9.60;81.00;;;;;;4983803;28;20157;-62
2023/12/30 05:52:39;;;;;;;1.10;0.90;;;9.60;80.20;;;;;;4980111;28;20026;-61
2023/12/30 05:55:05;;;;;;;1.85;1.00;;;9.70;80.30;;;;;;4987569;28;20041;-62
2023/12/30 05:57:31;;;;;;;1.67;1.10;;;9.60;80.30;;;;;;4982489;28;20410;-61
2023/12/30 05:59:57;;;;;;;3.03;1.10;;;9.70;80.30;;;;;;4984504;28;20072;-61
2023/12/30 06:02:22;;;;;;;1.25;1.05;;;9.60;80.20;;;;;;4989888;28;20045;-59
2023/12/30 06:04:48;;;;;;;3.03;1.20;;;9.70;80.20;;;;;;4987381;28;20026;-62
2023/12/30 06:07:14;;;;;;;1.23;1.05;;;9.70;80.20;;;;;;4983700;28;20039;-61
2023/12/30 06:09:41;;;;;;;1.30;1.20;;;9.70;80.30;;;;;;4984441;28;20453;-62
2023/12/30 06:12:07;;;;;;;1.27;1.10;;;9.70;80.10;;;;;;4978563;28;20057;-62
2023/12/30 06:14:33;;;;;;;3.08;1.45;;;9.70;80.10;;;;;;4989082;28;20605;-61
2023/12/30 06:16:59;;;;;;;2.95;1.30;;;9.60;80.10;;;;;;4987990;28;20058;-60
2023/12/30 06:19:25;;;;;;;1.83;1.30;;;9.70;80.10;;;;;;4987029;28;20065;-61
2023/12/30 06:21:50;;;;;;;2.35;1.55;;;9.70;80.10;;;;;;4984716;28;20041;-61
2023/12/30 06:24:16;;;;;;;1.55;1.45;;;9.70;80.30;;;;;;4977286;28;20118;-62
2023/12/30 06:26:42;;;;;;;2.78;1.60;;;9.70;80.30;;;;;;4980630;28;20039;-61
2023/12/30 06:29:08;;;;;;;1.75;1.52;;;9.70;80.40;;;;;;4981085;28;20042;-62
2023/12/30 06:31:41;;;;;;;3.38;1.60;;;9.70;80.30;;;;;;4986757;28;20530;-61
2023/12/30 06:34:06;;;;;;;2.95;1.83;;;9.70;80.30;;;;;;4992440;28;20058;-60
2023/12/30 06:36:32;;;;;;;3.63;1.70;;;9.70;80.30;;;;;;4985851;28;20514;-62
2023/12/30 06:38:57;;;;;;;2.92;1.70;;;9.70;80.20;;;;;;4984116;28;20049;-62
2023/12/30 06:41:23;;;;;;;1.70;1.45;;;9.60;80.10;;;;;;4987415;28;20058;-62
2023/12/30 06:43:48;;;;;;;1.75;1.63;;;9.60;80.10;;;;;;4981242;28;20031;-62
2023/12/30 06:46:18;;;;;;;2.50;1.58;;;9.60;80.10;;;;;;4982136;28;20030;-61
2023/12/30 06:48:43;;;;;;;1.77;1.48;;;9.60;80.20;;;;;;4986969;28;20520;-61
2023/12/30 06:51:10;;;;;;;3.47;1.80;;;9.60;80.10;;;;;;4983697;28;20042;-62
2023/12/30 06:53:36;;;;;;;1.60;1.50;;;9.60;80.20;;;;;;4983498;28;20413;-61
2023/12/30 06:56:02;;;;;;;2.03;1.58;;;9.60;80.10;;;;;;4982300;28;20030;-62
2023/12/30 06:58:29;;;;;;;1.80;1.70;;;9.60;80.20;;;;;;4984797;28;20045;-61
2023/12/30 07:00:54;;;;;;;2.78;1.83;;;9.60;80.30;;;;;;4986090;28;20096;-61
2023/12/30 07:03:20;;;;;;;2.17;1.70;;;9.60;80.30;;;;;;4985404;28;20035;-61
2023/12/30 07:05:45;;;;;;;2.25;1.75;;;9.60;80.30;;;;;;4987953;28;20030;-61
2023/12/30 07:08:12;;;;;;;3.40;2.20;;;9.60;80.40;;;;;;4987066;28;20121;-61
2023/12/30 07:10:38;;;;;;;3.10;2.00;;;9.50;80.30;;;;;;4981708;28;20491;-62
2023/12/30 07:13:04;;;;;;;2.17;1.98;;;9.50;80.30;;;;;;4973740;28;20125;-62
2023/12/30 07:15:29;;;;;;;2.28;1.70;;;9.50;80.30;;;;;;4987882;28;20030;-62
2023/12/30 07:17:55;;;;;;;3.50;2.30;;;9.50;80.40;;;;;;4978550;28;20519;-62
2023/12/30 07:20:26;;;;;;;3.03;2.30;;;9.50;80.50;;;;;;4977514;28;20395;-62
2023/12/30 07:22:55;;;;;;;4.85;2.40;;;9.40;80.60;;;;;;4982917;28;20050;-62
2023/12/30 07:25:20;;;;;;;2.97;2.30;;;9.40;80.60;;;;;;4979233;28;20376;-62
2023/12/30 07:27:47;;;;;;;4.10;2.70;;;9.40;80.70;;;;;;4974427;28;20085;-61
2023/12/30 07:30:12;;;;;;;4.70;2.78;;;9.40;80.70;;;;;;4981491;28;20047;-60
2023/12/30 07:32:38;;;;;;;5.47;2.90;;;9.40;80.90;;;;;;4984786;28;20041;-62
2023/12/30 07:35:07;;;;;;;3.65;2.65;;;9.40;81.00;;;;;;4983172;28;20328;-61
2023/12/30 07:37:34;;;;;;;2.95;2.58;;;9.40;82.00;;;;;;4979079;28;20129;-62
2023/12/30 07:40:01;;;;;;;2.97;2.53;;;9.40;81.20;;;;;;4981595;28;20580;-58
2023/12/30 07:42:26;;;;;;;3.05;2.40;;;9.40;81.20;;;;;;4983599;28;20077;-59
2023/12/30 07:44:53;;;;;;;3.63;2.60;;;9.40;81.20;;;;;;4987134;28;20510;-62
2023/12/30 07:47:19;;;;;;;3.50;2.63;;;9.40;81.30;;;;;;4985054;28;21347;-61
2023/12/30 07:49:46;;;;;;;2.65;2.45;;;9.40;81.30;;;;;;4988144;28;20031;-62
2023/12/30 07:52:12;;;;;;;4.72;2.80;;;9.40;81.30;;;;;;4985932;28;20038;-61
2023/12/30 07:54:38;;;;;;;3.42;2.85;;;9.30;81.30;;;;;;4984498;28;20061;-62
2023/12/30 07:57:03;;;;;;;5.00;2.60;;;9.40;81.50;;;;;;4986031;28;20519;-62
2023/12/30 07:59:29;;;;;;;2.95;2.65;;;9.40;81.50;;;;;;4989443;28;20449;-62
2023/12/30 08:01:56;;;;;;;4.20;2.40;;;9.40;81.60;;;;;;4985199;28;20042;-61
2023/12/30 08:04:22;;;;;;;3.65;2.60;;;9.40;81.60;;;;;;4980680;28;20045;-61
2023/12/30 08:06:48;;;;;;;4.22;3.05;;;9.40;81.60;;;;;;4980353;28;20048;-62
2023/12/30 08:09:14;;;;;;;4.68;3.58;;;9.40;81.70;;;;;;4986732;28;20042;-60
2023/12/30 08:11:39;;;;;;;3.90;2.65;;;9.40;81.70;;;;;;4978669;28;20055;-61
2023/12/30 08:14:05;;;;;;;3.92;2.80;;;9.40;81.80;;;;;;4983878;28;20597;-61
2023/12/30 08:16:33;;;;;;;4.63;2.50;;;9.40;81.80;;;;;;4979994;28;20112;-61
2023/12/30 08:19:02;;;;;;;5.03;2.60;;;9.40;81.90;;;;;;4981346;28;20042;-61
2023/12/30 08:21:28;;;;;;;3.58;2.70;;;9.40;81.90;;;;;;4989113;28;20106;-61
2023/12/30 08:23:54;;;;;;;3.10;2.20;;;9.40;81.90;;;;;;4985246;28;20118;-61
2023/12/30 08:26:20;;;;;;;2.67;2.35;;;9.50;82.00;;;;;;4983676;28;20705;-60
2023/12/30 08:28:46;;;;;;;3.70;2.90;;;9.50;81.90;;;;;;4985598;28;20122;-62
2023/12/30 08:31:12;;;;;;;3.72;2.75;;;9.50;81.90;;;;;;4982987;28;20513;-61
2023/12/30 08:33:39;;;;;;;4.55;2.65;;;9.50;81.90;;;;;;4979543;28;20058;-61
2023/12/30 08:36:04;;;;;;;2.92;2.60;;;9.50;81.80;;;;;;4981032;28;20089;-62
2023/12/30 08:38:31;;;;;;;3.88;2.50;;;9.60;81.90;;;;;;4989990;28;20034;-62
2023/12/30 08:40:57;;;;;;;3.40;2.90;;;9.60;81.80;;;;;;4987563;28;20030;-61
2023/12/30 08:43:23;;;;;;;3.38;2.78;;;9.60;81.90;;;;;;4982914;28;20042;-61
2023/12/30 08:45:48;;;;;;;3.03;2.50;;;9.60;81.90;;;;;;4979975;28;20030;-62
2023/12/30 08:48:14;;;;;;;3.72;2.35;;;9.60;81.90;;;;;;4979481;28;20039;-61
2023/12/30 08:50:41;;;;;;;2.40;2.20;;;9.60;81.90;;;;;;4974353;28;20035;-62
2023/12/30 08:53:06;;;;;;;3.20;2.38;;;9.60;81.90;;;;;;4981704;28;20037;-62
2023/12/30 08:55:32;;;;;;;2.95;2.42;;;9.70;81.90;;;;;;4988636;28;20127;-60
2023/12/30 08:57:58;;;;;;;2.85;2.30;;;9.70;82.00;;;;;;4979778;28;20069;-62
2023/12/30 09:00:24;;;;;;;3.83;2.40;;;9.70;81.90;;;;;;4981780;28;20039;-62
2023/12/30 09:02:49;;;;;;;4.43;2.30;;;9.70;81.80;;;;;;4985459;28;20088;-62
2023/12/30 09:05:19;;;;;;;3.97;2.22;;;9.80;81.80;;;;;;4981048;28;20121;-62
2023/12/30 09:07:46;;;;;;;5.10;2.10;;;9.80;81.70;;;;;;4981799;28;20042;-62
2023/12/30 09:10:11;;;;;;;2.60;2.30;;;9.80;81.70;;;;;;4982640;28;20034;-61
2023/12/30 09:12:37;;;;;;;2.60;1.92;;;9.80;81.60;;;;;;4982317;28;20031;-62
2023/12/30 09:15:05;;;;;;;1.85;1.75;;;9.90;81.60;;;;;;4984828;28;20034;-62
2023/12/30 09:17:30;;;;;;;3.55;2.00;;;9.90;81.50;;;;;;4987365;28;20514;-62
2023/12/30 09:19:56;;;;;;;2.42;2.03;;;10.00;81.50;;;;;;4987796;28;20046;-62
2023/12/30 09:22:22;;;;;;;2.72;2.10;;;10.00;81.50;;;;;;4981512;28;20038;-61
2023/12/30 09:24:48;;;;;;;2.38;1.90;;;10.00;81.50;;;;;;4984072;28;20478;-62
2023/12/30 09:27:14;;;;;;;4.32;1.88;;;10.10;81.30;;;;;;4979342;28;20044;-62
2023/12/30 09:29:40;;;;;;;2.13;1.60;;;10.10;81.30;;;;;;4987813;28;20121;-62
2023/12/30 09:32:06;;;;;;;2.03;1.63;;;10.30;81.30;;;;;;4981806;28;20533;-62
2023/12/30 09:34:31;;;;;;;1.50;1.40;;;10.20;81.00;;;;;;4984531;28;20041;-62
2023/12/30 09:36:57;;;;;;;2.25;2.00;;;10.20;81.00;;;;;;4984100;28;20339;-62
2023/12/30 09:39:22;;;;;;;2.03;1.73;;;10.20;80.80;;;;;;4982911;28;20089;-62
2023/12/30 09:41:48;;;;;;;2.63;1.60;;;10.30;80.90;;;;;;4985658;28;20041;-62
2023/12/30 09:44:14;;;;;;;3.22;1.75;;;10.30;80.80;;;;;;4984147;28;20026;-62
2023/12/30 09:46:40;;;;;;;1.90;1.73;;;10.30;80.80;;;;;;4984890;28;20042;-62
2023/12/30 09:49:06;;;;;;;2.33;1.45;;;10.40;80.70;;;;;;4980010;28;20068;-63
2023/12/30 09:51:33;;;;;;;2.25;1.60;;;10.40;80.60;;;;;;4982571;28;20039;-62
2023/12/30 09:53:59;;;;;;;2.20;1.38;;;10.50;80.50;;;;;;4979954;28;20046;-62
2023/12/30 09:56:26;;;;;;;2.42;1.50;;;10.50;80.50;;;;;;4984719;28;20065;-61
2023/12/30 09:58:53;;;;;;;2.13;1.50;;;10.60;80.50;;;;;;4985701;28;20148;-62
2023/12/30 10:01:23;;;;;;;2.40;1.35;;;10.60;80.20;;;;;;4984797;28;20126;-62
2023/12/30 10:03:48;;;;;;;1.65;1.30;;;10.70;80.10;;;;;;4980747;28;20066;-62
2023/12/30 10:06:17;;;;;;;1.98;1.33;;;10.70;80.00;;;;;;4985510;28;20039;-62
2023/12/30 10:08:43;;;;;;;3.42;1.30;;;10.80;79.60;;;;;;4979057;28;20499;-60
2023/12/30 10:11:10;;;;;;;1.73;1.20;;;10.80;79.70;;;;;;4977356;28;20057;-61
2023/12/30 10:13:37;;;;;;;2.05;1.08;;;10.90;79.60;;;;;;4984146;28;20042;-61
2023/12/30 10:16:05;;;;;;;1.88;1.15;;;10.90;79.50;;;;;;4982675;28;20034;-61
2023/12/30 10:18:37;;;;;;;4.28;1.98;;;10.90;80.00;;;;;;4984383;28;20038;-61
2023/12/30 10:21:06;;;;;;;3.97;2.00;;;11.00;79.30;;;;;;4983253;28;20031;-61
2023/12/30 10:23:33;;;;;;;2.13;1.52;;;11.10;79.20;;;;;;4982598;28;20034;-60
2023/12/30 10:26:00;;;;;;;2.08;1.20;;;11.10;79.10;;;;;;4980168;28;20600;-61
2023/12/30 10:28:27;;;;;;;1.85;1.25;;;11.10;79.10;;;;;;4982969;28;21575;-61
2023/12/30 10:31:06;;;;;;;3.50;2.00;;;11.20;78.90;;;;;;4973104;28;20039;-61
2023/12/30 10:33:33;;;;;;;1.55;1.33;;;11.20;78.50;;;;;;4966241;28;20045;-61
2023/12/30 10:35:59;;;;;;;3.35;1.33;;;11.30;78.60;;;;;;4973294;28;20937;-62
2023/12/30 10:38:25;;;;;;;1.58;1.17;;;11.30;78.40;;;;;;4975029;28;20035;-62
2023/12/30 10:40:51;;;;;;;1.20;1.00;;;11.40;78.30;;;;;;4966894;28;20118;-62
2023/12/30 10:43:19;;;;;;;1.55;1.10;;;11.40;78.00;;;;;;4976520;28;20516;-61
2023/12/30 10:45:51;;;;;;;0.85;0.85;;;11.40;77.90;;;;;;4979852;28;20066;-60
2023/12/30 10:48:18;;;;;;;2.13;1.00;;;11.50;77.90;;;;;;4987680;28;20133;-60
2023/12/30 10:50:46;;;;;;;1.58;1.00;;;11.50;77.70;;;;;;4985906;28;20430;-62
2023/12/30 10:53:30;;;;;;;1.58;0.95;;;11.50;77.40;;;;;;4981849;28;22275;-61
2023/12/30 10:56:02;;;;;;;1.40;1.00;;;11.60;77.20;;;;;;4985654;28;20034;-60
2023/12/30 10:58:32;;;;;;;1.92;1.15;;;11.60;77.20;;;;;;4985379;28;20034;-61
2023/12/30 11:01:01;;;;;;;1.20;1.00;;;11.60;76.80;;;;;;4986364;28;20061;-61
2023/12/30 11:03:27;;;;;;;3.05;1.38;;;11.60;76.90;;;;;;4984329;28;20031;-62
2023/12/30 11:06:09;;;;;;;2.28;1.13;;;11.70;77.00;;;;;;4986240;28;20034;-61
2023/12/30 11:08:36;;;;;;;1.73;0.90;;;11.70;76.30;;;;;;4982419;28;20678;-61
2023/12/30 11:11:03;;;;;;;1.60;0.95;;;11.70;76.50;;;;;;4984970;28;20037;-62
2023/12/30 11:13:36;;;;;;;1.95;0.90;;;11.70;76.30;;;;;;4988806;28;20153;-62
2023/12/30 11:16:13;;;;;;;1.95;0.80;;;11.70;76.10;;;;;;4990266;28;20074;-61
2023/12/30 11:18:55;;;;;;;2.33;0.70;;;11.70;75.80;;;;;;4985446;28;20038;-62
2023/12/30 11:21:42;;;;;;;1.77;1.30;;;11.70;75.80;;;;;;4984292;28;20034;-62
2023/12/30 11:24:11;;;;;;;2.45;0.88;;;11.80;75.70;;;;;;4986068;28;20038;-62
2023/12/30 11:26:41;;;;;;;1.65;0.85;;;11.80;76.20;;;;;;4990254;28;20033;-61
2023/12/30 11:29:18;;;;;;;1.98;0.90;;;11.80;75.60;;;;;;4983064;28;20055;-62
2023/12/30 11:31:48;;;;;;;1.10;0.70;;;11.80;75.60;;;;;;4989841;28;20549;-62
2023/12/30 11:34:17;;;;;;;2.20;0.75;;;11.80;75.70;;;;;;4990083;28;20453;-61
2023/12/30 11:36:43;;;;;;;3.03;1.20;;;11.80;75.90;;;;;;4989640;28;20450;-61
2023/12/30 11:39:13;;;;;;;1.48;0.90;;;11.90;76.00;;;;;;4990836;28;20076;-61
2023/12/30 11:41:39;;;;;;;1.80;0.95;;;11.90;75.70;;;;;;4988665;28;20137;-62
2023/12/30 11:44:08;;;;;;;2.17;0.80;;;11.90;75.70;;;;;;4989206;28;20479;-61
2023/12/30 11:46:34;;;;;;;1.27;0.90;;;11.90;75.70;;;;;;4991341;28;20129;-62
2023/12/30 11:49:00;;;;;;;0.85;0.75;;;12.00;75.80;;;;;;4989141;28;20494;-61
2023/12/30 11:51:29;;;;;;;3.85;1.00;;;12.00;75.50;;;;;;4989992;28;20057;-62
2023/12/30 11:53:55;;;;;;;1.27;0.75;;;12.00;75.60;;;;;;4993621;28;20346;-62
2023/12/30 11:56:22;;;;;;;1.42;0.80;;;12.10;75.60;;;;;;4989338;28;20029;-62
2023/12/30 11:58:49;;;;;;;2.72;0.98;;;12.00;75.10;;;;;;4988628;28;20042;-62
2023/12/30 12:01:15;;;;;;;3.92;1.20;;;12.10;75.10;;;;;;4991016;28;20410;-62
2023/12/30 12:03:41;;;;;;;1.55;0.80;;;12.10;75.10;;;;;;4990886;28;20058;-59
2023/12/30 12:06:10;;;;;;;1.95;0.98;;;12.10;74.90;;;;;;4989457;28;20458;-61
2023/12/30 12:08:36;;;;;;;1.63;0.80;;;12.10;75.60;;;;;;4987620;28;20042;-59
2023/12/30 12:11:03;;;;;;;0.95;0.77;;;12.10;74.90;;;;;;4989542;28;20088;-61
2023/12/30 12:13:28;;;;;;;1.90;1.00;;;12.20;74.60;;;;;;4989817;28;20038;-61
2023/12/30 12:15:55;;;;;;;0.80;0.80;;;12.20;74.00;;;;;;4989811;28;20033;-62
2023/12/30 12:18:22;;;;;;;1.35;0.70;;;12.20;73.80;;;;;;4991026;28;20409;-62
2023/12/30 12:20:49;;;;;;;0.70;0.60;;;12.20;74.00;;;;;;4989764;28;20026;-61
2023/12/30 12:23:16;;;;;;;0.70;0.50;;;12.20;73.90;;;;;;4989705;28;20042;-61
2023/12/30 12:25:44;;;;;;;2.78;0.60;;;12.10;73.70;;;;;;4988113;28;20113;-61
2023/12/30 12:28:14;;;;;;;1.75;0.98;;;12.20;73.60;;;;;;4988023;28;20038;-62
2023/12/30 12:30:40;;;;;;;1.58;0.82;;;12.20;73.50;;;;;;4988676;28;20034;-61
2023/12/30 12:33:07;;;;;;;1.58;0.80;;;12.20;73.40;;;;;;4993495;28;20417;-61
2023/12/30 12:35:33;;;;;;;1.25;0.70;;;12.20;73.20;;;;;;4989078;28;20046;-60
2023/12/30 12:37:59;;;;;;;1.30;0.60;;;12.20;73.20;;;;;;4988744;28;20022;-61
2023/12/30 12:40:24;;;;;;;0.82;0.70;;;12.20;73.30;;;;;;4987765;28;20030;-61
2023/12/30 12:42:50;;;;;;;1.20;1.10;;;12.20;73.30;;;;;;4987275;28;20026;-59
2023/12/30 12:45:16;;;;;;;2.67;1.20;;;12.20;73.30;;;;;;4988592;28;20410;-60
2023/12/30 12:47:41;;;;;;;3.15;1.60;;;12.10;73.20;;;;;;4988686;28;20030;-60
2023/12/30 12:50:07;;;;;;;1.20;1.10;;;12.20;73.20;;;;;;4988723;28;20030;-62